Warnsveld, Netherlands
Current Conditions -  °F | °C
As of 9:55 AM on Saturday 25 Oct 2014 (Local Time) from EHDL Reporting Station
Moderate Fog Moderate Fog  
Wind Chill: 54°   Ceiling: 100
Heat Index: 54°   Visibility: 0.31mi
Dew Point: 54°   Wind: 7mph
Humidity: 100%   Direction: 210°SSW
Pressure: 30.03"   Gusts: NA
Location:  52.14°N, 6.23°E
Report Text: EHDL 250755Z AUTO 21006KT 0500 FG BKN001 BKN002 OVC007 12/12 Q1017 RED
Loading
Personal Weather Stations






























Interactive Weather Map
Tropical Storm Tracking
New forecast layout! Learn more

10-Day Weather Forecast

Advertisements
Track Severe Weather on mobile